Airfield :
LOGIN :

Register | Disclaimer

   EN    FR    IT 

 










Legend :    VFR   Marginal VFR   IFR   Intensive IFR   Very Intensive IFR
Visi :
Ceiling :
>= 8 km
>= 3000ft
5 to 8 km
1000 to 3000 ft
1500m to 5 km
500 to 1000 ft
800 to 1500m
200 to 500 ft
< 800m
< 200 ft
Symbols :   Thunderstorms  Fog  Heavy snow  Heavy precipitations  Wind > 20 kt
SIGMETs :     Misc.  Thunderstorms  Icing  Turbulence  Mountain Waves  Volcanic Ashes






- Airport Elevation : 427 ft
- IATA code : CIA


LIRA - Roma Ciampino

CURRENT METAR :
  • 102350Z 03007KT CAVOK 06/01 Q1013

EXPIRED METARs :
  • 102320Z 04007KT CAVOK 07/01 Q1013
  • 102250Z 03009KT CAVOK 07/01 Q1013
  • 102220Z 03009KT 360V060 CAVOK 07/01 Q1013
  • 102150Z 03008KT 340V040 CAVOK 07/02 Q1013
  • 102120Z 02009KT CAVOK 08/02 Q1013

TAF TAF LIRA
Valid from the 11 at 00:00 until the 12 at 00:00 UTC


102300Z 1100/1124 03012KT CAVOK
BECMG 1110/1112 VRB06KT



MET'MAP, your aeronautical weather chart ! - Copyright ORBIFLY December 2007 - Disclaimer

ORBIFLY MET'MAP TEAM :

Programming & Development : Alexandra Zaïnal
Concept & original design : Baudouin d'Aumeries
Assistance for programming : Marc-Olivier Méhu
Technical & hardware support : Manuel Goepfert

Contact : metmap@orbifly.com




SOURCES & CREDITS :

   NOAA